Time;durP1;ratioP1;P1;durP2;ratioP2;P2;SDS_P1;SDS_P2;PMS_P1;PMS_P2;Temp;Humidity;BMP_temperature;BMP_pressure;BME280_temperature;BME280_humidity;BME280_pressure;Samples;Min_cycle;Max_cycle;Signal;HPM_P1;HPM_P2
2022/07/22 00:01:50;;;;;;;2.55;1.23;;;;;;;;;;5048889;28;20442;-74
2022/07/22 00:04:21;;;;;;;2.25;1.52;;;;;;;;;;5045563;28;20446;-76
2022/07/22 00:06:48;;;;;;;7.05;1.65;;;;;;;;;;5064661;28;20342;-76
2022/07/22 00:09:16;;;;;;;1.40;0.90;;;;;;;;;;5050603;28;20028;-77
2022/07/22 00:11:42;;;;;;;0.85;0.50;;;;;;;;;;5054443;28;20452;-76
2022/07/22 00:14:10;;;;;;;0.80;0.80;;;;;;;;;;5050409;28;20127;-76
2022/07/22 00:16:35;;;;;;;0.57;0.57;;;;;;;;;;5052956;28;20024;-76
2022/07/22 00:19:13;;;;;;;0.65;0.57;;;;;;;;;;5049124;28;20108;-75
2022/07/22 00:21:38;;;;;;;0.47;0.28;;;;;;;;;;5051221;28;20021;-77
2022/07/22 00:24:08;;;;;;;0.40;0.40;;;;;;;;;;5054668;28;20033;-77
2022/07/22 00:26:39;;;;;;;0.82;0.50;;;;;;;;;;5054835;28;20116;-77
2022/07/22 00:29:04;;;;;;;0.60;0.60;;;;;;;;;;5046706;28;20053;-77
2022/07/22 00:31:32;;;;;;;1.35;0.93;;;;;;;;;;5052880;28;20048;-78
2022/07/22 00:34:01;;;;;;;1.02;0.73;;;;;;;;;;5054977;28;20108;-76
2022/07/22 00:36:26;;;;;;;0.85;0.68;;;;;;;;;;5028520;28;20028;-77
2022/07/22 00:38:53;;;;;;;1.90;0.80;;;;;;;;;;5046634;28;20021;-77
2022/07/22 00:41:21;;;;;;;0.73;0.55;;;;;;;;;;5053422;28;20048;-77
2022/07/22 00:44:02;;;;;;;1.77;0.60;;;;;;;;;;5054155;28;20338;-76
2022/07/22 00:46:28;;;;;;;0.70;0.70;;;;;;;;;;5044819;28;20040;-75
2022/07/22 00:48:56;;;;;;;1.58;1.05;;;;;;;;;;5045365;28;20088;-76
2022/07/22 00:51:23;;;;;;;3.08;0.50;;;;;;;;;;5054017;28;20060;-78
2022/07/22 00:53:51;;;;;;;2.30;1.35;;;;;;;;;;5049200;28;20021;-76
2022/07/22 00:56:20;;;;;;;1.17;0.50;;;;;;;;;;5049548;28;20322;-77
2022/07/22 00:58:48;;;;;;;1.73;1.38;;;;;;;;;;5054248;28;20017;-77
2022/07/22 01:01:15;;;;;;;1.40;1.02;;;;;;;;;;5048105;28;20032;-77
2022/07/22 01:03:40;;;;;;;1.75;1.20;;;;;;;;;;5054411;28;20028;-77
2022/07/22 01:06:06;;;;;;;2.15;1.08;;;;;;;;;;5066837;28;20021;-76
2022/07/22 01:08:34;;;;;;;3.30;1.05;;;;;;;;;;5047998;28;20029;-78
2022/07/22 01:11:11;;;;;;;1.92;1.52;;;;;;;;;;5047565;28;20163;-76
2022/07/22 01:13:36;;;;;;;1.17;0.73;;;;;;;;;;5048457;28;20036;-76
2022/07/22 01:16:06;;;;;;;1.05;1.00;;;;;;;;;;5041094;28;20025;-77
2022/07/22 01:18:36;;;;;;;0.90;0.68;;;;;;;;;;5046440;28;20108;-76
2022/07/22 01:21:02;;;;;;;1.80;1.45;;;;;;;;;;5052944;28;20036;-76
2022/07/22 01:23:28;;;;;;;1.45;1.20;;;;;;;;;;5045553;28;20320;-78
2022/07/22 01:25:54;;;;;;;2.20;1.35;;;;;;;;;;5054038;28;20032;-78
2022/07/22 01:28:21;;;;;;;1.90;0.90;;;;;;;;;;5053765;28;20032;-78
2022/07/22 01:30:49;;;;;;;1.63;1.20;;;;;;;;;;5052818;28;20560;-78
2022/07/22 01:33:18;;;;;;;2.45;1.20;;;;;;;;;;5053480;28;20037;-77
2022/07/22 01:35:44;;;;;;;2.03;1.70;;;;;;;;;;5036176;28;20375;-78
2022/07/22 01:38:11;;;;;;;2.38;1.00;;;;;;;;;;5051470;28;20029;-77
2022/07/22 01:40:38;;;;;;;2.20;0.93;;;;;;;;;;5039126;28;20122;-78
2022/07/22 01:43:06;;;;;;;3.92;1.25;;;;;;;;;;5052887;28;20033;-77
2022/07/22 01:45:33;;;;;;;1.85;1.23;;;;;;;;;;5052603;28;20032;-77
2022/07/22 01:48:05;;;;;;;1.60;0.68;;;;;;;;;;5050362;28;20037;-78
2022/07/22 01:50:31;;;;;;;3.85;1.38;;;;;;;;;;5051226;28;20454;-78
2022/07/22 01:52:57;;;;;;;1.02;0.93;;;;;;;;;;5054333;28;20047;-78
2022/07/22 01:55:22;;;;;;;0.95;0.60;;;;;;;;;;5070743;28;20132;-76
2022/07/22 01:57:51;;;;;;;1.15;0.77;;;;;;;;;;5068173;28;20092;-77
2022/07/22 02:00:17;;;;;;;1.52;1.42;;;;;;;;;;5069016;28;20094;-77
2022/07/22 02:02:42;;;;;;;1.42;0.98;;;;;;;;;;5071763;28;20036;-78
2022/07/22 02:05:08;;;;;;;1.88;0.95;;;;;;;;;;5054811;28;20461;-77
2022/07/22 02:07:34;;;;;;;0.88;0.75;;;;;;;;;;5046588;28;20024;-76
2022/07/22 02:10:00;;;;;;;1.75;1.02;;;;;;;;;;5066145;28;20044;-77
2022/07/22 02:12:25;;;;;;;0.93;0.85;;;;;;;;;;5032166;28;20024;-75
2022/07/22 02:14:55;;;;;;;5.45;1.25;;;;;;;;;;5043504;28;20105;-77
2022/07/22 02:17:21;;;;;;;2.00;1.15;;;;;;;;;;5054925;28;20033;-77
2022/07/22 02:19:47;;;;;;;0.68;0.52;;;;;;;;;;5063947;28;20032;-77
2022/07/22 02:22:12;;;;;;;0.60;0.60;;;;;;;;;;5069017;28;20028;-79
2022/07/22 02:24:40;;;;;;;1.40;0.93;;;;;;;;;;5071266;28;20330;-78
2022/07/22 02:27:08;;;;;;;0.60;0.38;;;;;;;;;;5056197;28;20048;-77
2022/07/22 02:29:33;;;;;;;0.95;0.77;;;;;;;;;;5052406;28;20158;-78
2022/07/22 02:31:59;;;;;;;0.47;0.40;;;;;;;;;;5050469;28;20128;-78
2022/07/22 02:34:25;;;;;;;1.30;1.00;;;;;;;;;;5052807;28;20170;-77
2022/07/22 02:36:51;;;;;;;0.75;0.50;;;;;;;;;;5053845;28;20029;-78
2022/07/22 02:39:16;;;;;;;1.23;0.85;;;;;;;;;;5051778;28;20020;-78
2022/07/22 02:41:41;;;;;;;1.02;0.90;;;;;;;;;;5053889;28;20024;-78
2022/07/22 02:44:07;;;;;;;2.35;0.85;;;;;;;;;;5041929;28;20037;-78
2022/07/22 02:46:32;;;;;;;0.75;0.75;;;;;;;;;;5052353;28;20047;-78
2022/07/22 02:49:00;;;;;;;1.20;1.00;;;;;;;;;;5052251;28;20057;-78
2022/07/22 02:51:26;;;;;;;1.45;1.00;;;;;;;;;;5052938;28;20102;-78
2022/07/22 02:53:51;;;;;;;1.65;0.85;;;;;;;;;;5051499;28;20439;-77
2022/07/22 02:56:19;;;;;;;0.40;0.40;;;;;;;;;;5050903;28;20102;-78
2022/07/22 02:58:51;;;;;;;0.88;0.60;;;;;;;;;;5045636;28;20414;-78
2022/07/22 03:01:17;;;;;;;1.50;1.15;;;;;;;;;;5047419;28;20104;-78
2022/07/22 03:03:42;;;;;;;0.77;0.63;;;;;;;;;;5050736;28;20481;-78
2022/07/22 03:06:08;;;;;;;1.35;0.73;;;;;;;;;;5052505;28;20111;-78
2022/07/22 03:08:33;;;;;;;0.65;0.40;;;;;;;;;;5049619;28;20574;-78
2022/07/22 03:11:00;;;;;;;0.65;0.57;;;;;;;;;;5042107;28;20048;-77
2022/07/22 03:13:28;;;;;;;0.55;0.43;;;;;;;;;;5044427;28;20034;-78
2022/07/22 03:15:56;;;;;;;0.40;0.40;;;;;;;;;;5048485;28;20473;-78
2022/07/22 03:18:21;;;;;;;5.93;1.40;;;;;;;;;;5051654;28;20033;-78
2022/07/22 03:20:46;;;;;;;0.85;0.68;;;;;;;;;;5048484;28;20500;-78
2022/07/22 03:23:12;;;;;;;0.57;0.50;;;;;;;;;;5048241;28;20108;-77
2022/07/22 03:25:38;;;;;;;1.17;0.82;;;;;;;;;;5042610;28;20029;-77
2022/07/22 03:28:04;;;;;;;3.28;0.63;;;;;;;;;;5052831;28;20039;-78
2022/07/22 03:30:30;;;;;;;1.38;0.82;;;;;;;;;;5051342;28;20029;-77
2022/07/22 03:32:55;;;;;;;0.80;0.57;;;;;;;;;;5053457;28;20037;-77
2022/07/22 03:35:21;;;;;;;0.38;0.38;;;;;;;;;;5052399;28;20029;-77
2022/07/22 03:37:46;;;;;;;1.20;0.93;;;;;;;;;;5051010;28;20463;-77
2022/07/22 03:40:14;;;;;;;0.88;0.75;;;;;;;;;;5053498;28;20062;-78
2022/07/22 03:42:42;;;;;;;1.13;0.82;;;;;;;;;;5051885;28;20029;-77
2022/07/22 03:45:08;;;;;;;0.40;0.40;;;;;;;;;;5053520;28;20020;-77
2022/07/22 03:47:34;;;;;;;2.00;0.88;;;;;;;;;;5045979;28;20429;-77
2022/07/22 03:50:01;;;;;;;0.70;0.50;;;;;;;;;;5057495;28;20467;-77
2022/07/22 03:52:27;;;;;;;1.02;0.80;;;;;;;;;;5056524;28;20039;-78
2022/07/22 03:54:53;;;;;;;0.77;0.40;;;;;;;;;;5056166;28;20055;-76
2022/07/22 03:57:19;;;;;;;2.30;1.50;;;;;;;;;;5056746;28;20017;-78
2022/07/22 03:59:44;;;;;;;5.35;2.05;;;;;;;;;;5055624;28;20104;-78
2022/07/22 04:02:10;;;;;;;1.17;0.98;;;;;;;;;;5050858;28;20100;-77
2022/07/22 04:04:45;;;;;;;2.10;1.13;;;;;;;;;;5054319;28;20059;-77
2022/07/22 04:07:11;;;;;;;2.85;1.95;;;;;;;;;;5055861;28;20048;-77
2022/07/22 04:09:37;;;;;;;1.30;0.70;;;;;;;;;;5056149;28;20466;-79
2022/07/22 04:12:05;;;;;;;2.95;1.50;;;;;;;;;;5056314;28;20025;-77
2022/07/22 04:14:33;;;;;;;0.43;0.43;;;;;;;;;;5055778;28;20454;-77
2022/07/22 04:16:59;;;;;;;2.38;0.75;;;;;;;;;;5052611;28;20042;-79
2022/07/22 04:19:24;;;;;;;2.45;0.60;;;;;;;;;;5056604;28;20351;-78
2022/07/22 04:21:49;;;;;;;1.60;1.20;;;;;;;;;;5055754;28;20086;-77
2022/07/22 04:24:19;;;;;;;1.90;1.15;;;;;;;;;;5056550;28;20033;-78
2022/07/22 04:26:45;;;;;;;2.20;1.15;;;;;;;;;;5056212;28;20029;-78
2022/07/22 04:29:10;;;;;;;1.05;0.93;;;;;;;;;;5046824;28;20083;-78
2022/07/22 04:31:35;;;;;;;1.05;0.95;;;;;;;;;;5050934;28;20085;-78
2022/07/22 04:34:03;;;;;;;1.90;0.80;;;;;;;;;;5055465;28;20056;-79
2022/07/22 04:36:28;;;;;;;2.80;1.27;;;;;;;;;;5050558;28;20029;-77
2022/07/22 04:38:54;;;;;;;3.28;1.83;;;;;;;;;;5054537;28;20449;-79
2022/07/22 04:41:21;;;;;;;1.08;0.70;;;;;;;;;;5050291;28;20157;-78
2022/07/22 04:43:47;;;;;;;1.42;1.10;;;;;;;;;;5054303;28;20460;-79
2022/07/22 04:46:13;;;;;;;0.32;0.32;;;;;;;;;;5055018;28;20025;-78
2022/07/22 04:48:38;;;;;;;2.65;0.88;;;;;;;;;;5049997;28;20477;-78
2022/07/22 04:51:04;;;;;;;0.40;0.30;;;;;;;;;;5052393;28;20350;-79
2022/07/22 04:53:29;;;;;;;0.50;0.50;;;;;;;;;;5043828;28;20089;-79
2022/07/22 04:56:00;;;;;;;0.50;0.50;;;;;;;;;;5054444;28;20020;-78
2022/07/22 04:58:25;;;;;;;0.50;0.50;;;;;;;;;;5033844;28;20032;-79
2022/07/22 05:00:51;;;;;;;4.38;0.32;;;;;;;;;;5052789;28;20028;-79
2022/07/22 05:03:17;;;;;;;0.43;0.43;;;;;;;;;;5055858;28;20052;-80
2022/07/22 05:05:42;;;;;;;0.47;0.40;;;;;;;;;;5049268;28;20045;-79
2022/07/22 05:08:10;;;;;;;4.53;1.00;;;;;;;;;;5044202;28;20098;-79
2022/07/22 05:10:38;;;;;;;0.57;0.57;;;;;;;;;;5054147;28;20381;-80
2022/07/22 05:13:05;;;;;;;0.68;0.32;;;;;;;;;;5065717;28;20025;-79
2022/07/22 05:15:30;;;;;;;4.60;1.35;;;;;;;;;;5049199;28;20459;-80
2022/07/22 05:17:58;;;;;;;1.63;0.95;;;;;;;;;;5054416;28;20027;-78
2022/07/22 05:20:23;;;;;;;2.45;0.50;;;;;;;;;;5046444;28;20029;-80
2022/07/22 05:22:49;;;;;;;0.50;0.50;;;;;;;;;;5046601;28;20025;-79
2022/07/22 05:25:14;;;;;;;2.92;1.13;;;;;;;;;;5051385;28;20117;-79
2022/07/22 05:27:50;;;;;;;2.38;0.70;;;;;;;;;;5045644;28;20036;-78
2022/07/22 05:30:15;;;;;;;0.60;0.60;;;;;;;;;;5050986;28;20071;-79
2022/07/22 05:32:40;;;;;;;1.77;1.15;;;;;;;;;;5045679;28;20064;-80
2022/07/22 05:35:06;;;;;;;1.80;0.73;;;;;;;;;;5048521;28;20029;-79
2022/07/22 05:37:31;;;;;;;0.30;0.30;;;;;;;;;;5053851;28;20029;-79
2022/07/22 05:39:57;;;;;;;0.60;0.60;;;;;;;;;;5049917;28;20051;-79
2022/07/22 05:42:22;;;;;;;0.70;0.65;;;;;;;;;;5047496;28;20353;-80
2022/07/22 05:44:50;;;;;;;0.60;0.47;;;;;;;;;;5052808;28;20025;-78
2022/07/22 05:47:15;;;;;;;0.30;0.20;;;;;;;;;;5053584;28;20033;-80
2022/07/22 05:49:41;;;;;;;1.05;0.50;;;;;;;;;;5052142;28;20123;-80
2022/07/22 05:52:06;;;;;;;0.93;0.75;;;;;;;;;;5042784;28;20053;-80
2022/07/22 05:54:36;;;;;;;0.60;0.47;;;;;;;;;;5052926;28;20063;-79
2022/07/22 05:57:02;;;;;;;0.45;0.45;;;;;;;;;;5054895;28;20021;-79
2022/07/22 05:59:29;;;;;;;0.43;0.40;;;;;;;;;;5052179;28;20389;-78
2022/07/22 06:01:56;;;;;;;1.02;0.45;;;;;;;;;;5055716;28;20036;-79
2022/07/22 06:04:24;;;;;;;0.40;0.30;;;;;;;;;;5049909;28;20033;-80
2022/07/22 06:06:49;;;;;;;8.27;0.95;;;;;;;;;;5050730;28;20100;-79
2022/07/22 06:09:14;;;;;;;0.52;0.52;;;;;;;;;;5047932;28;20117;-78
2022/07/22 06:11:40;;;;;;;0.47;0.45;;;;;;;;;;5054056;28;20057;-81
2022/07/22 06:14:07;;;;;;;4.88;1.38;;;;;;;;;;5045858;28;20446;-80
2022/07/22 06:16:34;;;;;;;0.32;0.32;;;;;;;;;;5042678;28;20025;-78
2022/07/22 06:19:00;;;;;;;0.32;0.20;;;;;;;;;;5043312;28;20450;-79
2022/07/22 06:21:26;;;;;;;1.27;0.50;;;;;;;;;;5050151;28;20043;-80
2022/07/22 06:23:51;;;;;;;0.40;0.40;;;;;;;;;;5053628;28;20032;-80
2022/07/22 06:26:19;;;;;;;0.10;0.10;;;;;;;;;;5053399;28;20077;-79
2022/07/22 06:28:45;;;;;;;0.30;0.30;;;;;;;;;;5047218;28;20025;-77
2022/07/22 06:31:11;;;;;;;1.02;0.70;;;;;;;;;;5048054;28;20025;-79
2022/07/22 06:33:38;;;;;;;2.08;0.55;;;;;;;;;;5049214;28;20114;-81
2022/07/22 06:36:06;;;;;;;6.30;1.83;;;;;;;;;;5047910;28;20381;-80
2022/07/22 06:38:32;;;;;;;0.90;0.65;;;;;;;;;;5056301;28;20028;-80
2022/07/22 06:40:57;;;;;;;1.00;0.40;;;;;;;;;;5054435;28;20500;-80
2022/07/22 06:43:25;;;;;;;0.70;0.70;;;;;;;;;;5053041;28;20017;-81
2022/07/22 06:45:51;;;;;;;0.47;0.47;;;;;;;;;;5046088;28;20040;-78
2022/07/22 06:48:19;;;;;;;1.35;0.80;;;;;;;;;;5054469;28;20039;-79
2022/07/22 06:50:45;;;;;;;0.82;0.45;;;;;;;;;;5048953;28;20021;-79
2022/07/22 06:53:17;;;;;;;0.50;0.20;;;;;;;;;;5040259;28;20044;-79
2022/07/22 06:55:43;;;;;;;0.32;0.25;;;;;;;;;;5049727;28;20033;-80
2022/07/22 06:58:09;;;;;;;0.30;0.30;;;;;;;;;;5047896;28;20043;-81
2022/07/22 07:00:34;;;;;;;2.38;0.45;;;;;;;;;;5050552;28;20123;-80
2022/07/22 07:03:04;;;;;;;1.00;0.80;;;;;;;;;;5049570;28;20052;-80
2022/07/22 07:05:30;;;;;;;0.28;0.28;;;;;;;;;;5048038;28;20021;-80
2022/07/22 07:07:58;;;;;;;1.80;0.82;;;;;;;;;;5050057;28;20082;-80
2022/07/22 07:10:23;;;;;;;0.55;0.35;;;;;;;;;;5049342;28;20068;-81
2022/07/22 07:12:51;;;;;;;0.93;0.40;;;;;;;;;;5052130;28;20029;-80
2022/07/22 07:15:16;;;;;;;0.30;0.28;;;;;;;;;;5046257;28;20446;-78
2022/07/22 07:17:42;;;;;;;1.95;0.60;;;;;;;;;;5040491;28;20036;-79
2022/07/22 07:20:07;;;;;;;0.30;0.22;;;;;;;;;;5056473;28;20119;-78
2022/07/22 07:22:33;;;;;;;0.25;0.25;;;;;;;;;;5056541;28;20025;-79
2022/07/22 07:25:06;;;;;;;0.15;0.13;;;;;;;;;;5051401;28;20032;-78
2022/07/22 07:27:31;;;;;;;0.80;0.32;;;;;;;;;;5056615;28;20033;-78
2022/07/22 07:29:57;;;;;;;1.35;0.30;;;;;;;;;;5056738;28;20027;-78
2022/07/22 07:32:22;;;;;;;0.22;0.20;;;;;;;;;;5055447;28;20067;-80
2022/07/22 07:34:50;;;;;;;0.85;0.38;;;;;;;;;;5055825;28;20048;-78
2022/07/22 07:37:18;;;;;;;0.43;0.30;;;;;;;;;;5055540;28;20020;-80
2022/07/22 07:39:43;;;;;;;0.30;0.30;;;;;;;;;;5060995;28;20089;-79
2022/07/22 07:42:13;;;;;;;1.20;0.57;;;;;;;;;;5044455;28;20116;-79
2022/07/22 07:44:41;;;;;;;0.45;0.40;;;;;;;;;;5040204;28;20476;-79
2022/07/22 07:47:06;;;;;;;3.47;1.10;;;;;;;;;;5052775;28;20028;-79
2022/07/22 07:49:32;;;;;;;0.57;0.57;;;;;;;;;;5056049;28;20024;-80
2022/07/22 07:51:57;;;;;;;0.20;0.20;;;;;;;;;;5055795;28;20029;-80
2022/07/22 07:54:22;;;;;;;2.92;0.68;;;;;;;;;;5056061;28;20032;-80
2022/07/22 07:56:48;;;;;;;0.30;0.30;;;;;;;;;;5057678;28;20426;-80
2022/07/22 07:59:13;;;;;;;0.32;0.22;;;;;;;;;;5049686;28;20045;-81
2022/07/22 08:01:44;;;;;;;0.25;0.25;;;;;;;;;;5037420;28;20025;-81
2022/07/22 08:04:09;;;;;;;0.95;0.40;;;;;;;;;;5042738;28;20100;-80
2022/07/22 08:06:35;;;;;;;0.40;0.40;;;;;;;;;;5056041;28;20410;-81
2022/07/22 08:09:01;;;;;;;6.22;0.45;;;;;;;;;;5060107;28;20316;-81
2022/07/22 08:11:37;;;;;;;0.47;0.30;;;;;;;;;;5036537;28;20030;-80
2022/07/22 08:14:03;;;;;;;0.40;0.40;;;;;;;;;;5038667;28;20079;-80
2022/07/22 08:16:31;;;;;;;0.63;0.60;;;;;;;;;;5045953;28;20029;-79
2022/07/22 08:18:57;;;;;;;0.28;0.28;;;;;;;;;;5046614;28;20450;-80
2022/07/22 08:21:22;;;;;;;0.32;0.32;;;;;;;;;;5052610;28;20035;-78
2022/07/22 08:23:48;;;;;;;0.40;0.40;;;;;;;;;;5055739;28;20362;-80
2022/07/22 08:26:33;;;;;;;0.17;0.17;;;;;;;;;;5055789;28;20421;-80
2022/07/22 08:28:58;;;;;;;1.80;0.93;;;;;;;;;;5055397;28;20127;-82
2022/07/22 08:31:26;;;;;;;0.63;0.57;;;;;;;;;;5044544;28;20112;-80
2022/07/22 08:33:51;;;;;;;1.55;1.17;;;;;;;;;;5048130;28;20047;-80
2022/07/22 08:36:16;;;;;;;0.85;0.85;;;;;;;;;;5052612;28;20111;-80
2022/07/22 08:38:42;;;;;;;4.60;0.65;;;;;;;;;;5055750;28;20037;-80
2022/07/22 08:41:10;;;;;;;1.50;1.10;;;;;;;;;;5055896;28;20029;-80
2022/07/22 08:43:39;;;;;;;2.58;1.48;;;;;;;;;;5055506;28;20037;-80
2022/07/22 08:46:05;;;;;;;1.20;1.00;;;;;;;;;;5039677;28;20025;-80
2022/07/22 08:48:30;;;;;;;1.65;0.95;;;;;;;;;;5052479;28;20037;-80
2022/07/22 08:50:55;;;;;;;1.80;1.25;;;;;;;;;;5053293;28;20362;-84
2022/07/22 08:53:23;;;;;;;0.98;0.80;;;;;;;;;;5055311;28;20036;-81
2022/07/22 08:55:51;;;;;;;0.70;0.70;;;;;;;;;;5055702;28;20029;-80
2022/07/22 08:58:17;;;;;;;1.23;1.13;;;;;;;;;;5053322;28;20128;-80
2022/07/22 09:00:47;;;;;;;1.98;1.13;;;;;;;;;;5045766;28;20100;-80
2022/07/22 09:03:51;;;;;;;0.95;0.90;;;;;;;;;;5054120;28;20029;-80
2022/07/22 09:06:20;;;;;;;2.30;1.08;;;;;;;;;;5047524;28;20041;-85
2022/07/22 09:08:55;;;;;;;1.10;0.73;;;;;;;;;;5071511;28;20044;-83
2022/07/22 09:11:23;;;;;;;1.48;0.80;;;;;;;;;;5039222;28;20588;-85
2022/07/22 09:13:48;;;;;;;0.98;0.80;;;;;;;;;;5039123;28;20369;-84
2022/07/22 09:16:16;;;;;;;1.15;1.00;;;;;;;;;;5045522;28;20095;-83
2022/07/22 09:18:52;;;;;;;1.23;0.88;;;;;;;;;;5051410;28;20103;-81
2022/07/22 09:21:20;;;;;;;1.48;1.15;;;;;;;;;;5055084;28;20033;-81
2022/07/22 09:23:46;;;;;;;0.75;0.75;;;;;;;;;;5055020;28;20124;-82
2022/07/22 09:26:36;;;;;;;2.25;1.45;;;;;;;;;;5054488;28;20029;-80
2022/07/22 09:29:03;;;;;;;2.00;1.25;;;;;;;;;;5073644;28;20044;-88
2022/07/22 09:31:36;;;;;;;2.05;1.30;;;;;;;;;;5038984;28;20030;-87
2022/07/22 09:34:12;;;;;;;1.55;1.13;;;;;;;;;;5072839;28;20098;-88
2022/07/22 09:37:00;;;;;;;0.85;0.85;;;;;;;;;;5080046;28;20046;-91
2022/07/22 09:39:31;;;;;;;1.25;0.93;;;;;;;;;;5088469;28;20081;-90
2022/07/22 09:42:00;;;;;;;2.08;1.05;;;;;;;;;;5081125;28;20115;-90
2022/07/22 09:44:26;;;;;;;4.68;1.50;;;;;;;;;;5061350;28;20051;-89
2022/07/22 09:46:52;;;;;;;1.60;1.15;;;;;;;;;;5071571;28;20020;-88
2022/07/22 09:49:40;;;;;;;1.58;1.30;;;;;;;;;;5057675;28;20379;-89
2022/07/22 09:52:06;;;;;;;2.55;1.45;;;;;;;;;;5050334;28;20042;-91
2022/07/22 09:54:33;;;;;;;2.30;1.77;;;;;;;;;;5069417;28;20111;-86
2022/07/22 09:57:01;;;;;;;1.92;1.27;;;;;;;;;;5069143;28;20036;-88
2022/07/22 09:59:31;;;;;;;2.33;1.65;;;;;;;;;;5070624;28;20389;-88
2022/07/22 10:01:58;;;;;;;1.42;1.33;;;;;;;;;;5040565;28;20037;-91
2022/07/22 10:04:24;;;;;;;1.50;1.23;;;;;;;;;;5056699;28;20021;-92
2022/07/22 10:06:51;;;;;;;0.80;0.73;;;;;;;;;;5054728;28;20029;-92
2022/07/22 10:09:17;;;;;;;2.38;1.35;;;;;;;;;;5032936;28;20033;-89
2022/07/22 10:11:45;;;;;;;2.72;1.42;;;;;;;;;;5050013;28;20470;-93
2022/07/22 10:14:16;;;;;;;1.02;0.88;;;;;;;;;;5040162;28;20029;-93
2022/07/22 10:16:41;;;;;;;2.20;1.52;;;;;;;;;;5055726;28;20017;-90
2022/07/22 10:19:07;;;;;;;2.45;1.60;;;;;;;;;;5035307;28;20018;-93
2022/07/22 10:21:34;;;;;;;1.63;1.42;;;;;;;;;;5040049;28;20033;-92
2022/07/22 10:24:11;;;;;;;2.03;1.10;;;;;;;;;;5053163;28;20033;-95
2022/07/22 10:27:07;;;;;;;1.02;0.82;;;;;;;;;;5055495;28;20029;-89
2022/07/22 10:29:39;;;;;;;1.33;1.23;;;;;;;;;;5054363;28;20024;-88
2022/07/22 10:32:22;;;;;;;2.50;1.42;;;;;;;;;;5070116;28;20051;-86
2022/07/22 10:35:06;;;;;;;3.30;1.42;;;;;;;;;;5051087;28;20039;-85
2022/07/22 10:37:40;;;;;;;4.88;2.50;;;;;;;;;;5035996;28;20025;-88
2022/07/22 10:40:12;;;;;;;3.15;2.60;;;;;;;;;;5052945;28;20043;-87
2022/07/22 10:43:06;;;;;;;4.28;1.52;;;;;;;;;;5063948;28;20033;-88
2022/07/22 10:45:43;;;;;;;2.42;1.92;;;;;;;;;;5042376;28;20035;-90
2022/07/22 10:48:10;;;;;;;2.85;2.25;;;;;;;;;;5047848;28;20033;-88
2022/07/22 10:50:41;;;;;;;3.22;1.90;;;;;;;;;;5035486;28;20022;-87
2022/07/22 10:53:07;;;;;;;2.75;1.63;;;;;;;;;;5044330;28;20036;-87
2022/07/22 10:55:58;;;;;;;2.50;2.10;;;;;;;;;;5041638;28;20434;-88
2022/07/22 10:58:33;;;;;;;3.42;1.73;;;;;;;;;;5040691;28;20025;-87
2022/07/22 11:01:02;;;;;;;2.97;1.83;;;;;;;;;;5054354;28;20045;-87
2022/07/22 11:03:35;;;;;;;2.75;2.20;;;;;;;;;;5052431;28;20458;-88
2022/07/22 11:06:30;;;;;;;5.80;2.15;;;;;;;;;;5051043;28;20044;-85
2022/07/22 11:09:08;;;;;;;2.53;1.92;;;;;;;;;;5030320;28;20444;-89
2022/07/22 11:11:45;;;;;;;3.50;2.10;;;;;;;;;;5035388;28;20037;-89
2022/07/22 11:14:30;;;;;;;5.57;2.78;;;;;;;;;;5044265;28;20037;-87
2022/07/22 11:17:08;;;;;;;4.47;2.53;;;;;;;;;;5049144;28;20029;-88
2022/07/22 11:19:34;;;;;;;4.20;2.67;;;;;;;;;;5053281;28;20093;-88
2022/07/22 11:22:03;;;;;;;4.43;2.83;;;;;;;;;;5053602;28;20032;-86
2022/07/22 11:24:29;;;;;;;4.07;3.15;;;;;;;;;;5043587;28;20022;-89
2022/07/22 11:26:58;;;;;;;4.63;3.10;;;;;;;;;;5035648;28;20026;-89
2022/07/22 11:29:44;;;;;;;4.40;2.60;;;;;;;;;;5045512;28;20021;-89
2022/07/22 11:32:13;;;;;;;5.57;2.97;;;;;;;;;;5043330;28;20400;-89
2022/07/22 11:34:47;;;;;;;3.90;1.90;;;;;;;;;;5050902;28;20467;-88
2022/07/22 11:37:15;;;;;;;4.78;2.80;;;;;;;;;;5046881;28;20052;-86
2022/07/22 11:39:47;;;;;;;5.63;3.22;;;;;;;;;;5065617;28;20064;-80
2022/07/22 11:42:13;;;;;;;6.80;3.00;;;;;;;;;;5052303;28;20032;-85
2022/07/22 11:44:42;;;;;;;6.72;2.75;;;;;;;;;;5046412;28;20038;-89
2022/07/22 11:47:09;;;;;;;6.10;3.15;;;;;;;;;;5048398;28;20021;-89
2022/07/22 11:49:38;;;;;;;7.40;3.03;;;;;;;;;;5054747;28;20040;-88
2022/07/22 11:52:11;;;;;;;3.53;2.40;;;;;;;;;;5053852;28;20020;-85
2022/07/22 11:54:40;;;;;;;6.63;3.83;;;;;;;;;;5051395;28;20048;-90
2022/07/22 11:57:06;;;;;;;8.35;3.30;;;;;;;;;;5049933;28;20017;-88
2022/07/22 11:59:33;;;;;;;4.70;3.47;;;;;;;;;;5068154;28;20037;-88
2022/07/22 12:02:07;;;;;;;7.28;4.45;;;;;;;;;;5070725;28;20035;-87
2022/07/22 12:04:33;;;;;;;6.97;3.38;;;;;;;;;;5053361;28;20033;-85
2022/07/22 12:07:01;;;;;;;5.97;3.00;;;;;;;;;;5054148;28;20462;-83
2022/07/22 12:09:36;;;;;;;8.52;3.80;;;;;;;;;;5053533;28;20024;-85
2022/07/22 12:12:03;;;;;;;6.05;3.10;;;;;;;;;;5037578;28;20038;-83
2022/07/22 12:14:31;;;;;;;4.22;3.13;;;;;;;;;;5054951;28;20040;-86
2022/07/22 12:16:59;;;;;;;3.90;3.00;;;;;;;;;;5052595;28;20366;-82
2022/07/22 12:19:33;;;;;;;7.93;3.78;;;;;;;;;;5038995;28;20386;-87
2022/07/22 12:22:07;;;;;;;5.43;2.53;;;;;;;;;;5042480;28;20029;-88
2022/07/22 12:24:40;;;;;;;6.05;2.80;;;;;;;;;;5037104;28;20442;-85
2022/07/22 12:27:07;;;;;;;3.63;2.78;;;;;;;;;;5039865;28;20053;-85
2022/07/22 12:29:40;;;;;;;4.88;3.70;;;;;;;;;;5054876;28;20123;-86
2022/07/22 12:32:14;;;;;;;5.72;3.13;;;;;;;;;;5042204;28;20112;-84
2022/07/22 12:35:06;;;;;;;5.15;2.97;;;;;;;;;;5042238;28;20358;-83
2022/07/22 12:37:45;;;;;;;5.75;4.25;;;;;;;;;;5066102;28;20374;-84
2022/07/22 12:40:20;;;;;;;4.80;3.10;;;;;;;;;;5057520;28;20108;-85
2022/07/22 12:43:06;;;;;;;3.90;2.65;;;;;;;;;;5064228;28;20438;-84
2022/07/22 12:45:33;;;;;;;5.22;2.88;;;;;;;;;;5051567;28;20393;-82
2022/07/22 12:48:03;;;;;;;5.68;2.90;;;;;;;;;;5055060;28;20086;-84
2022/07/22 12:50:33;;;;;;;9.13;4.53;;;;;;;;;;5052099;28;20040;-83
2022/07/22 12:53:12;;;;;;;5.60;3.20;;;;;;;;;;5044065;28;20056;-82
2022/07/22 12:55:46;;;;;;;5.28;3.40;;;;;;;;;;5053929;28;20025;-82
2022/07/22 12:58:13;;;;;;;8.55;2.80;;;;;;;;;;5050506;28;20032;-82
2022/07/22 13:00:43;;;;;;;5.53;3.25;;;;;;;;;;5052501;28;20029;-82
2022/07/22 13:03:09;;;;;;;4.47;2.95;;;;;;;;;;5051063;28;20033;-81
2022/07/22 13:05:35;;;;;;;3.58;3.25;;;;;;;;;;5052627;28;20035;-82
2022/07/22 13:08:01;;;;;;;5.07;2.90;;;;;;;;;;5048685;28;20079;-79
2022/07/22 13:10:26;;;;;;;5.07;3.20;;;;;;;;;;5052913;28;20029;-82
2022/07/22 13:12:52;;;;;;;3.65;2.95;;;;;;;;;;5047555;28;20037;-80
2022/07/22 13:15:19;;;;;;;3.90;2.40;;;;;;;;;;5037568;28;20082;-80
2022/07/22 13:17:45;;;;;;;5.45;3.35;;;;;;;;;;5046526;28;20450;-83
2022/07/22 13:20:13;;;;;;;8.38;3.22;;;;;;;;;;5051843;28;20091;-80
2022/07/22 13:22:39;;;;;;;6.60;2.88;;;;;;;;;;5052735;28;20044;-82
2022/07/22 13:25:07;;;;;;;7.60;4.35;;;;;;;;;;5046826;28;20060;-82
2022/07/22 13:27:32;;;;;;;5.22;3.50;;;;;;;;;;5044164;28;20043;-82
2022/07/22 13:29:59;;;;;;;4.03;2.75;;;;;;;;;;5036454;28;20103;-78
2022/07/22 13:32:33;;;;;;;5.22;2.70;;;;;;;;;;5048500;28;20024;-82
2022/07/22 13:35:00;;;;;;;4.80;3.05;;;;;;;;;;5054764;28;20049;-82
2022/07/22 13:37:26;;;;;;;4.35;2.70;;;;;;;;;;5048838;28;20094;-82
2022/07/22 13:39:55;;;;;;;2.63;2.13;;;;;;;;;;5055483;28;20024;-82
2022/07/22 13:42:21;;;;;;;5.88;2.92;;;;;;;;;;5052332;28;20039;-83
2022/07/22 13:44:47;;;;;;;4.80;2.85;;;;;;;;;;5046268;28;20028;-82
2022/07/22 13:47:12;;;;;;;5.53;3.22;;;;;;;;;;5043269;28;20036;-81
2022/07/22 13:49:40;;;;;;;6.95;3.53;;;;;;;;;;5051886;28;20021;-84
2022/07/22 13:52:05;;;;;;;4.05;2.65;;;;;;;;;;5051995;28;20025;-80
2022/07/22 13:54:34;;;;;;;6.68;2.22;;;;;;;;;;5048850;28;20033;-82
2022/07/22 13:57:02;;;;;;;5.78;3.38;;;;;;;;;;5047225;28;20029;-82
2022/07/22 13:59:28;;;;;;;6.07;3.33;;;;;;;;;;5037162;28;20104;-81
2022/07/22 14:01:54;;;;;;;2.70;1.80;;;;;;;;;;5055628;28;20028;-82
2022/07/22 14:04:19;;;;;;;5.20;3.50;;;;;;;;;;5054165;28;20040;-84
2022/07/22 14:06:45;;;;;;;4.40;2.75;;;;;;;;;;5046628;28;20393;-84
2022/07/22 14:09:11;;;;;;;5.32;2.83;;;;;;;;;;5051386;28;20029;-82
2022/07/22 14:11:38;;;;;;;5.25;2.83;;;;;;;;;;5056046;28;20033;-82
2022/07/22 14:14:07;;;;;;;4.57;3.47;;;;;;;;;;5045056;28;20112;-81
2022/07/22 14:16:37;;;;;;;4.88;3.17;;;;;;;;;;5034454;28;20057;-81
2022/07/22 14:19:11;;;;;;;3.20;2.88;;;;;;;;;;5034884;28;20036;-82
2022/07/22 14:21:42;;;;;;;4.47;3.28;;;;;;;;;;5040858;28;20052;-82
2022/07/22 14:24:08;;;;;;;8.07;3.72;;;;;;;;;;5051210;28;20443;-81
2022/07/22 14:26:34;;;;;;;2.65;2.28;;;;;;;;;;5043699;28;20032;-81
2022/07/22 14:29:00;;;;;;;4.05;3.08;;;;;;;;;;5034033;28;20032;-79
2022/07/22 14:31:31;;;;;;;4.00;2.67;;;;;;;;;;5030687;28;20370;-85
2022/07/22 14:33:56;;;;;;;5.72;2.97;;;;;;;;;;5045988;28;20037;-85
2022/07/22 14:36:25;;;;;;;3.58;2.75;;;;;;;;;;5048260;28;20036;-86
2022/07/22 14:38:51;;;;;;;5.68;2.78;;;;;;;;;;5042911;28;20072;-86
2022/07/22 14:41:17;;;;;;;3.58;2.88;;;;;;;;;;5012012;28;20439;-82
2022/07/22 14:43:42;;;;;;;3.88;2.95;;;;;;;;;;5029445;28;20041;-83
2022/07/22 14:46:11;;;;;;;3.65;2.58;;;;;;;;;;5016297;28;20428;-86
2022/07/22 14:48:40;;;;;;;4.30;2.72;;;;;;;;;;5028387;28;20127;-87
2022/07/22 14:51:06;;;;;;;2.67;1.95;;;;;;;;;;5011317;28;20057;-83